Private Wetterstation Nrnberg - Katzwang
Wetterdaten: Dezember 2010
Datum Temp. A. Feuchte A. Luftdruck Regen Wind Richtung Taupunkt Windchill Windben
01.12.2010 -4,6 C 86 % 998 hPa 1,0 l/m 7,7 km/h N-NO -6,7 C -7,1 C 9,1 km/h
02.12.2010 -6,0 C 84 % 1004 hPa 0,0 l/m 2,1 km/h N -8,3 C -6,4 C 3,1 km/h
03.12.2010 -6,2 C 87 % 1008 hPa 0,0 l/m 0,7 km/h NO -8,0 C -6,3 C 1,7 km/h
04.12.2010 -4,5 C 86 % 1016 hPa 0,0 l/m 4,7 km/h NO -6,5 C -5,7 C 5,7 km/h
05.12.2010 -2,9 C 86 % 1008 hPa 0,0 l/m 10,9 km/h NO -4,8 C -7,4 C 12,9 km/h
06.12.2010 0,9 C 93 % 998 hPa 0,0 l/m 1,1 km/h O-NO -0,2 C 0,8 C 2,1 km/h
07.12.2010 1,7 C 93 % 999 hPa 1,0 l/m 0,5 km/h N-NO 0,7 C 1,7 C 1,5 km/h
08.12.2010 3,2 C 95 % 999 hPa 4,7 l/m 2,5 km/h O-NO 2,5 C 2,6 C 3,6 km/h
09.12.2010 -0,5 C 88 % 1015 hPa 0,0 l/m 7,1 km/h W-NW -2,2 C -3,1 C 10,4 km/h
10.12.2010 -0,3 C 90 % 1023 hPa 0,0 l/m 1,7 km/h W-NW -1,8 C -0,7 C 2,7 km/h
11.12.2010 1,9 C 92 % 1015 hPa 0,0 l/m 9,7 km/h W-NW 0,8 C -1,4 C 15,0 km/h
12.12.2010 2,1 C 89 % 1009 hPa 0,5 l/m 7,5 km/h W-NW 0,5 C 0,0 C 10,0 km/h
13.12.2010 -3,4 C 77 % 1017 hPa 0,0 l/m 5,1 km/h N-NO -6,8 C -5,0 C 6,3 km/h
14.12.2010 -4,6 C 84 % 1020 hPa 0,0 l/m 2,8 km/h W-NW -6,9 C -5,2 C 3,8 km/h
15.12.2010 -4,1 C 83 % 1019 hPa 0,0 l/m 5,6 km/h W-NW -6,7 C -5,9 C 7,3 km/h
16.12.2010 -5,0 C 84 % 1009 hPa 0,0 l/m 6,6 km/h N-NO -7,3 C -7,8 C 8,8 km/h
17.12.2010 -3,1 C 88 % 992 hPa 0,0 l/m 5,2 km/h W-NW -4,8 C -4,8 C 6,4 km/h
18.12.2010 -7,4 C 85 % 999 hPa 0,5 l/m 2,4 km/h O-NO -9,5 C -8,0 C 3,4 km/h
19.12.2010 -2,3 C 88 % 996 hPa 0,0 l/m 8,4 km/h NO -4,0 C -4,9 C 9,6 km/h
20.12.2010 0,5 C 88 % 1000 hPa 0,0 l/m 3,8 km/h W-NW -1,2 C -0,6 C 5,7 km/h
21.12.2010 1,3 C 93 % 1003 hPa 0,0 l/m 2,3 km/h NO 0,3 C 0,9 C 3,3 km/h
22.12.2010 1,4 C 93 % 1000 hPa 0,5 l/m 1,1 km/h O-NO 0,4 C 1,3 C 2,1 km/h
23.12.2010 1,4 C 93 % 995 hPa 0,0 l/m 0,2 km/h W-NW 0,3 C 1,4 C 1,2 km/h
24.12.2010 -0,3 C 92 % 996 hPa 0,0 l/m 4,5 km/h N-NO -1,4 C -1,4 C 5,7 km/h
25.12.2010 -4,2 C 87 % 1012 hPa 0,0 l/m 4,6 km/h N-NO -6,1 C -5,3 C 5,6 km/h
26.12.2010 -8,2 C 85 % 1022 hPa 0,5 l/m 1,3 km/h N -10,3 C -8,4 C 2,3 km/h
27.12.2010 -3,5 C 87 % 1021 hPa 0,0 l/m 2,3 km/h NO -5,4 C -3,8 C 3,3 km/h
28.12.2010 -4,7 C 87 % 1019 hPa 0,0 l/m 1,1 km/h NO -6,6 C -4,9 C 2,1 km/h
29.12.2010 -7,5 C 86 % 1021 hPa 0,0 l/m 1,2 km/h O -9,5 C -7,7 C 2,2 km/h
30.12.2010 -10,0 C 84 % 1022 hPa 0,0 l/m 0,3 km/h N-NO -12,1 C -10,0 C 1,3 km/h
31.12.2010 -3,3 C 86 % 1021 hPa 0,0 l/m 0,6 km/h N-NO -5,2 C -3,3 C 1,6 km/h
Min-Datum 30.12.10 15.12.10 17.12.10 7 Tage 01.12.10 - 30.12.10 16.12.10 01.12.10
Min-Zeit 08:00 11:50 07:20 - 01:10 - 08:00 22:30 01:10
Minimum -15,4 C 68 % 988 hPa - 0,0 km/h - -17,3 C -19,8 C 1,0 km/h
Max-Datum 08.12.10 07.12.10 10.12.10 08.12.10 11.12.10 - 08.12.10 08.12.10 11.12.10
Max-Zeit 10:50 11:00 15:10 18:10 10:00 - 10:50 10:50 10:00
Maximum 5,9 C 95 % 1027 hPa 4,7 l/m 36,3 km/h
W-NW
- 5,2 C 5,9 C 75,6 km/h
W-NW
Durchschnitt -2,7 C 88 % 1009 hPa #8,8 l/m 3,7 km/h W-NW -4,4 C -3,7 C 5,2 km/h

Durchschnitt Minimum Temp.-5,6 C
Durchschnitt Maximum Temp.0,1 C